sensor_id;sensor_type;location;lat;lon;timestamp;P1;durP1;ratioP1;P2;durP2;ratioP2
35578;SDS011;21687;48.900;9.188;2023-05-23T00:01:55;34.30;;;22.83;;
35578;SDS011;21687;48.900;9.188;2023-05-23T00:04:22;34.20;;;24.53;;
35578;SDS011;21687;48.900;9.188;2023-05-23T00:06:50;42.23;;;26.63;;
35578;SDS011;21687;48.900;9.188;2023-05-23T00:09:17;40.53;;;27.20;;
35578;SDS011;21687;48.900;9.188;2023-05-23T00:11:44;45.93;;;26.63;;
35578;SDS011;21687;48.900;9.188;2023-05-23T00:14:11;44.90;;;27.20;;
35578;SDS011;21687;48.900;9.188;2023-05-23T00:16:41;48.27;;;28.90;;
35578;SDS011;21687;48.900;9.188;2023-05-23T00:19:09;50.93;;;30.57;;
35578;SDS011;21687;48.900;9.188;2023-05-23T00:21:36;52.97;;;32.40;;
35578;SDS011;21687;48.900;9.188;2023-05-23T00:24:02;58.27;;;32.37;;
35578;SDS011;21687;48.900;9.188;2023-05-23T00:26:29;54.33;;;32.73;;
35578;SDS011;21687;48.900;9.188;2023-05-23T00:28:56;55.67;;;33.37;;
35578;SDS011;21687;48.900;9.188;2023-05-23T00:31:23;62.57;;;36.50;;
35578;SDS011;21687;48.900;9.188;2023-05-23T00:33:49;66.00;;;35.77;;
35578;SDS011;21687;48.900;9.188;2023-05-23T00:36:15;65.77;;;37.83;;
35578;SDS011;21687;48.900;9.188;2023-05-23T00:38:42;76.80;;;37.63;;
35578;SDS011;21687;48.900;9.188;2023-05-23T00:41:10;70.00;;;37.83;;
35578;SDS011;21687;48.900;9.188;2023-05-23T00:43:36;61.53;;;36.53;;
35578;SDS011;21687;48.900;9.188;2023-05-23T00:46:02;70.33;;;38.53;;
35578;SDS011;21687;48.900;9.188;2023-05-23T00:48:29;62.10;;;37.43;;
35578;SDS011;21687;48.900;9.188;2023-05-23T00:50:55;69.43;;;37.60;;
35578;SDS011;21687;48.900;9.188;2023-05-23T00:53:22;70.93;;;37.77;;
35578;SDS011;21687;48.900;9.188;2023-05-23T00:55:48;74.03;;;40.67;;
35578;SDS011;21687;48.900;9.188;2023-05-23T00:58:15;72.27;;;38.83;;
35578;SDS011;21687;48.900;9.188;2023-05-23T01:00:41;76.57;;;41.50;;
35578;SDS011;21687;48.900;9.188;2023-05-23T01:03:11;88.63;;;43.70;;
35578;SDS011;21687;48.900;9.188;2023-05-23T01:05:42;81.03;;;42.37;;
35578;SDS011;21687;48.900;9.188;2023-05-23T01:08:09;81.97;;;41.27;;
35578;SDS011;21687;48.900;9.188;2023-05-23T01:10:35;79.23;;;42.93;;
35578;SDS011;21687;48.900;9.188;2023-05-23T01:13:09;84.40;;;42.87;;
35578;SDS011;21687;48.900;9.188;2023-05-23T01:16:07;83.37;;;42.77;;
35578;SDS011;21687;48.900;9.188;2023-05-23T01:18:50;77.97;;;42.40;;
35578;SDS011;21687;48.900;9.188;2023-05-23T01:21:35;86.33;;;43.50;;
35578;SDS011;21687;48.900;9.188;2023-05-23T01:29:47;86.17;;;43.70;;
35578;SDS011;21687;48.900;9.188;2023-05-23T01:32:20;93.07;;;44.90;;
35578;SDS011;21687;48.900;9.188;2023-05-23T01:34:49;88.63;;;46.97;;
35578;SDS011;21687;48.900;9.188;2023-05-23T01:37:18;89.53;;;47.00;;
35578;SDS011;21687;48.900;9.188;2023-05-23T01:39:44;101.53;;;46.73;;
35578;SDS011;21687;48.900;9.188;2023-05-23T01:42:11;90.50;;;49.13;;
35578;SDS011;21687;48.900;9.188;2023-05-23T01:44:38;90.70;;;46.83;;
35578;SDS011;21687;48.900;9.188;2023-05-23T01:47:06;91.00;;;48.57;;
35578;SDS011;21687;48.900;9.188;2023-05-23T01:49:34;93.50;;;47.03;;
35578;SDS011;21687;48.900;9.188;2023-05-23T01:55:24;94.27;;;48.93;;
35578;SDS011;21687;48.900;9.188;2023-05-23T01:57:55;99.33;;;50.73;;
35578;SDS011;21687;48.900;9.188;2023-05-23T02:00:22;102.13;;;51.70;;
35578;SDS011;21687;48.900;9.188;2023-05-23T02:02:48;94.20;;;49.67;;
35578;SDS011;21687;48.900;9.188;2023-05-23T02:05:15;93.37;;;50.27;;
35578;SDS011;21687;48.900;9.188;2023-05-23T02:07:41;104.37;;;51.43;;
35578;SDS011;21687;48.900;9.188;2023-05-23T02:10:07;97.83;;;50.93;;
35578;SDS011;21687;48.900;9.188;2023-05-23T02:12:34;102.73;;;52.30;;
35578;SDS011;21687;48.900;9.188;2023-05-23T02:15:00;91.67;;;50.30;;
35578;SDS011;21687;48.900;9.188;2023-05-23T02:17:27;92.47;;;51.10;;
35578;SDS011;21687;48.900;9.188;2023-05-23T02:19:53;98.83;;;53.23;;
35578;SDS011;21687;48.900;9.188;2023-05-23T02:22:23;97.13;;;51.37;;
35578;SDS011;21687;48.900;9.188;2023-05-23T02:24:50;98.10;;;51.70;;
35578;SDS011;21687;48.900;9.188;2023-05-23T02:27:17;107.00;;;51.07;;
35578;SDS011;21687;48.900;9.188;2023-05-23T02:29:44;97.73;;;52.97;;
35578;SDS011;21687;48.900;9.188;2023-05-23T02:32:10;98.40;;;49.43;;
35578;SDS011;21687;48.900;9.188;2023-05-23T02:34:36;96.27;;;51.23;;
35578;SDS011;21687;48.900;9.188;2023-05-23T02:37:03;97.47;;;51.33;;
35578;SDS011;21687;48.900;9.188;2023-05-23T02:39:29;92.63;;;49.40;;
35578;SDS011;21687;48.900;9.188;2023-05-23T02:41:55;97.03;;;49.30;;
35578;SDS011;21687;48.900;9.188;2023-05-23T02:44:21;90.43;;;50.77;;
35578;SDS011;21687;48.900;9.188;2023-05-23T02:46:47;86.40;;;50.10;;
35578;SDS011;21687;48.900;9.188;2023-05-23T02:49:14;83.40;;;48.83;;
35578;SDS011;21687;48.900;9.188;2023-05-23T02:51:40;90.50;;;51.30;;
35578;SDS011;21687;48.900;9.188;2023-05-23T02:54:06;90.73;;;50.90;;
35578;SDS011;21687;48.900;9.188;2023-05-23T02:56:32;79.87;;;46.87;;
35578;SDS011;21687;48.900;9.188;2023-05-23T02:58:58;84.33;;;47.47;;
35578;SDS011;21687;48.900;9.188;2023-05-23T03:01:25;94.80;;;50.57;;
35578;SDS011;21687;48.900;9.188;2023-05-23T03:03:51;75.10;;;47.40;;
35578;SDS011;21687;48.900;9.188;2023-05-23T03:06:17;85.67;;;49.03;;
35578;SDS011;21687;48.900;9.188;2023-05-23T03:08:46;88.37;;;48.23;;
35578;SDS011;21687;48.900;9.188;2023-05-23T03:11:12;83.20;;;49.17;;
35578;SDS011;21687;48.900;9.188;2023-05-23T03:13:38;79.67;;;47.83;;
35578;SDS011;21687;48.900;9.188;2023-05-23T03:16:05;85.53;;;49.87;;
35578;SDS011;21687;48.900;9.188;2023-05-23T03:18:31;74.03;;;45.37;;
35578;SDS011;21687;48.900;9.188;2023-05-23T03:20:58;74.73;;;47.50;;
35578;SDS011;21687;48.900;9.188;2023-05-23T03:23:24;76.50;;;47.13;;
35578;SDS011;21687;48.900;9.188;2023-05-23T03:25:50;80.87;;;48.17;;
35578;SDS011;21687;48.900;9.188;2023-05-23T03:28:16;81.00;;;47.40;;
35578;SDS011;21687;48.900;9.188;2023-05-23T03:30:42;82.77;;;48.13;;
35578;SDS011;21687;48.900;9.188;2023-05-23T03:33:09;73.23;;;45.13;;
35578;SDS011;21687;48.900;9.188;2023-05-23T03:35:36;76.60;;;48.00;;
35578;SDS011;21687;48.900;9.188;2023-05-23T03:38:02;77.03;;;46.83;;
35578;SDS011;21687;48.900;9.188;2023-05-23T03:40:29;76.17;;;48.33;;
35578;SDS011;21687;48.900;9.188;2023-05-23T03:43:02;71.83;;;44.80;;
35578;SDS011;21687;48.900;9.188;2023-05-23T03:45:33;72.53;;;44.47;;
35578;SDS011;21687;48.900;9.188;2023-05-23T03:47:59;73.83;;;45.67;;
35578;SDS011;21687;48.900;9.188;2023-05-23T03:50:26;72.90;;;45.83;;
35578;SDS011;21687;48.900;9.188;2023-05-23T03:52:53;71.07;;;43.90;;
35578;SDS011;21687;48.900;9.188;2023-05-23T03:55:22;71.53;;;45.33;;
35578;SDS011;21687;48.900;9.188;2023-05-23T03:57:49;66.70;;;44.90;;
35578;SDS011;21687;48.900;9.188;2023-05-23T04:00:16;71.57;;;44.63;;
35578;SDS011;21687;48.900;9.188;2023-05-23T04:02:43;72.00;;;45.53;;
35578;SDS011;21687;48.900;9.188;2023-05-23T04:05:14;75.37;;;44.27;;
35578;SDS011;21687;48.900;9.188;2023-05-23T04:07:40;69.30;;;43.73;;
35578;SDS011;21687;48.900;9.188;2023-05-23T04:10:07;69.03;;;44.03;;
35578;SDS011;21687;48.900;9.188;2023-05-23T04:12:34;68.93;;;44.10;;
35578;SDS011;21687;48.900;9.188;2023-05-23T04:15:01;66.40;;;42.03;;
35578;SDS011;21687;48.900;9.188;2023-05-23T04:17:28;68.07;;;43.40;;
35578;SDS011;21687;48.900;9.188;2023-05-23T04:19:55;67.00;;;42.57;;
35578;SDS011;21687;48.900;9.188;2023-05-23T04:22:22;63.43;;;41.53;;
35578;SDS011;21687;48.900;9.188;2023-05-23T04:24:48;63.93;;;42.60;;
35578;SDS011;21687;48.900;9.188;2023-05-23T04:27:14;67.63;;;43.40;;
35578;SDS011;21687;48.900;9.188;2023-05-23T04:29:40;62.10;;;40.70;;
35578;SDS011;21687;48.900;9.188;2023-05-23T04:32:08;66.07;;;41.13;;
35578;SDS011;21687;48.900;9.188;2023-05-23T04:34:35;64.13;;;41.30;;
35578;SDS011;21687;48.900;9.188;2023-05-23T04:37:02;56.77;;;38.97;;
35578;SDS011;21687;48.900;9.188;2023-05-23T04:39:28;60.63;;;39.30;;
35578;SDS011;21687;48.900;9.188;2023-05-23T04:41:55;64.17;;;41.33;;
35578;SDS011;21687;48.900;9.188;2023-05-23T04:44:24;58.23;;;40.13;;
35578;SDS011;21687;48.900;9.188;2023-05-23T04:46:54;57.63;;;41.23;;
35578;SDS011;21687;48.900;9.188;2023-05-23T04:49:21;57.47;;;39.43;;
35578;SDS011;21687;48.900;9.188;2023-05-23T04:51:47;60.37;;;40.50;;
35578;SDS011;21687;48.900;9.188;2023-05-23T04:54:13;61.50;;;41.17;;
35578;SDS011;21687;48.900;9.188;2023-05-23T04:56:40;63.37;;;41.40;;
35578;SDS011;21687;48.900;9.188;2023-05-23T04:59:06;54.63;;;39.47;;
35578;SDS011;21687;48.900;9.188;2023-05-23T05:01:35;58.17;;;40.93;;
35578;SDS011;21687;48.900;9.188;2023-05-23T05:04:04;58.43;;;39.60;;
35578;SDS011;21687;48.900;9.188;2023-05-23T05:06:31;54.87;;;38.77;;
35578;SDS011;21687;48.900;9.188;2023-05-23T05:08:57;50.87;;;36.07;;
35578;SDS011;21687;48.900;9.188;2023-05-23T05:11:24;51.50;;;37.87;;
35578;SDS011;21687;48.900;9.188;2023-05-23T05:13:51;49.27;;;35.67;;
35578;SDS011;21687;48.900;9.188;2023-05-23T05:16:17;52.50;;;37.57;;
35578;SDS011;21687;48.900;9.188;2023-05-23T05:18:43;54.07;;;36.57;;
35578;SDS011;21687;48.900;9.188;2023-05-23T05:21:10;51.37;;;37.23;;
35578;SDS011;21687;48.900;9.188;2023-05-23T05:23:36;50.80;;;36.23;;
35578;SDS011;21687;48.900;9.188;2023-05-23T05:26:02;48.13;;;35.90;;
35578;SDS011;21687;48.900;9.188;2023-05-23T05:28:29;52.80;;;36.87;;
35578;SDS011;21687;48.900;9.188;2023-05-23T05:30:55;50.83;;;35.53;;
35578;SDS011;21687;48.900;9.188;2023-05-23T05:33:21;48.40;;;34.97;;
35578;SDS011;21687;48.900;9.188;2023-05-23T05:35:49;44.00;;;33.83;;
35578;SDS011;21687;48.900;9.188;2023-05-23T05:38:18;45.40;;;34.27;;
35578;SDS011;21687;48.900;9.188;2023-05-23T05:40:44;47.20;;;34.67;;
35578;SDS011;21687;48.900;9.188;2023-05-23T05:43:10;46.83;;;33.80;;
35578;SDS011;21687;48.900;9.188;2023-05-23T05:45:36;45.90;;;34.83;;
35578;SDS011;21687;48.900;9.188;2023-05-23T05:48:04;44.70;;;33.90;;
35578;SDS011;21687;48.900;9.188;2023-05-23T05:50:30;48.20;;;33.73;;
35578;SDS011;21687;48.900;9.188;2023-05-23T05:52:56;43.80;;;32.70;;
35578;SDS011;21687;48.900;9.188;2023-05-23T05:55:22;42.40;;;33.30;;
35578;SDS011;21687;48.900;9.188;2023-05-23T05:57:48;44.40;;;32.80;;
35578;SDS011;21687;48.900;9.188;2023-05-23T06:00:15;52.37;;;33.17;;
35578;SDS011;21687;48.900;9.188;2023-05-23T06:02:43;44.57;;;32.33;;
35578;SDS011;21687;48.900;9.188;2023-05-23T06:05:15;42.20;;;32.43;;
35578;SDS011;21687;48.900;9.188;2023-05-23T06:07:41;43.93;;;33.30;;
35578;SDS011;21687;48.900;9.188;2023-05-23T06:10:08;42.33;;;31.90;;
35578;SDS011;21687;48.900;9.188;2023-05-23T06:12:38;39.13;;;31.13;;
35578;SDS011;21687;48.900;9.188;2023-05-23T06:15:05;39.67;;;30.80;;
35578;SDS011;21687;48.900;9.188;2023-05-23T06:17:31;42.57;;;31.87;;
35578;SDS011;21687;48.900;9.188;2023-05-23T06:19:57;38.93;;;30.03;;
35578;SDS011;21687;48.900;9.188;2023-05-23T06:22:24;36.93;;;30.90;;
35578;SDS011;21687;48.900;9.188;2023-05-23T06:24:50;36.83;;;30.10;;
35578;SDS011;21687;48.900;9.188;2023-05-23T06:27:16;40.17;;;31.37;;
35578;SDS011;21687;48.900;9.188;2023-05-23T06:29:42;37.80;;;30.70;;
35578;SDS011;21687;48.900;9.188;2023-05-23T06:32:09;40.83;;;31.93;;
35578;SDS011;21687;48.900;9.188;2023-05-23T06:34:35;40.30;;;30.87;;
35578;SDS011;21687;48.900;9.188;2023-05-23T06:37:01;38.73;;;31.07;;
35578;SDS011;21687;48.900;9.188;2023-05-23T06:39:27;39.73;;;31.80;;
35578;SDS011;21687;48.900;9.188;2023-05-23T06:41:54;44.13;;;32.87;;
35578;SDS011;21687;48.900;9.188;2023-05-23T06:44:20;41.23;;;31.80;;
35578;SDS011;21687;48.900;9.188;2023-05-23T06:46:46;44.77;;;32.97;;
35578;SDS011;21687;48.900;9.188;2023-05-23T06:49:13;41.80;;;33.03;;
35578;SDS011;21687;48.900;9.188;2023-05-23T06:51:40;42.47;;;34.00;;
35578;SDS011;21687;48.900;9.188;2023-05-23T06:54:06;46.37;;;33.97;;
35578;SDS011;21687;48.900;9.188;2023-05-23T06:56:32;44.67;;;33.47;;
35578;SDS011;21687;48.900;9.188;2023-05-23T06:58:58;42.10;;;32.80;;
35578;SDS011;21687;48.900;9.188;2023-05-23T07:01:25;42.87;;;33.03;;
35578;SDS011;21687;48.900;9.188;2023-05-23T07:03:51;36.80;;;29.10;;
35578;SDS011;21687;48.900;9.188;2023-05-23T07:06:17;37.43;;;29.27;;
35578;SDS011;21687;48.900;9.188;2023-05-23T07:08:43;33.03;;;27.63;;
35578;SDS011;21687;48.900;9.188;2023-05-23T07:11:10;35.80;;;27.30;;
35578;SDS011;21687;48.900;9.188;2023-05-23T07:13:37;34.73;;;27.07;;
35578;SDS011;21687;48.900;9.188;2023-05-23T07:16:03;35.93;;;26.00;;
35578;SDS011;21687;48.900;9.188;2023-05-23T07:18:30;31.20;;;25.63;;
35578;SDS011;21687;48.900;9.188;2023-05-23T07:20:56;30.87;;;24.83;;
35578;SDS011;21687;48.900;9.188;2023-05-23T07:23:22;26.23;;;22.93;;
35578;SDS011;21687;48.900;9.188;2023-05-23T07:25:49;27.87;;;23.00;;
35578;SDS011;21687;48.900;9.188;2023-05-23T07:28:15;27.73;;;21.23;;
35578;SDS011;21687;48.900;9.188;2023-05-23T07:30:42;26.27;;;21.37;;
35578;SDS011;21687;48.900;9.188;2023-05-23T07:33:08;26.10;;;21.80;;
35578;SDS011;21687;48.900;9.188;2023-05-23T07:35:34;27.53;;;23.57;;
35578;SDS011;21687;48.900;9.188;2023-05-23T07:38:00;30.63;;;23.23;;
35578;SDS011;21687;48.900;9.188;2023-05-23T07:40:27;28.70;;;22.33;;
35578;SDS011;21687;48.900;9.188;2023-05-23T07:42:53;26.83;;;22.13;;
35578;SDS011;21687;48.900;9.188;2023-05-23T07:45:19;24.10;;;20.60;;
35578;SDS011;21687;48.900;9.188;2023-05-23T07:47:46;25.03;;;21.23;;
35578;SDS011;21687;48.900;9.188;2023-05-23T07:50:13;25.40;;;21.87;;
35578;SDS011;21687;48.900;9.188;2023-05-23T07:52:39;24.27;;;21.20;;
35578;SDS011;21687;48.900;9.188;2023-05-23T07:55:05;23.87;;;20.27;;
35578;SDS011;21687;48.900;9.188;2023-05-23T07:57:32;28.43;;;20.53;;
35578;SDS011;21687;48.900;9.188;2023-05-23T07:59:58;23.67;;;21.00;;
35578;SDS011;21687;48.900;9.188;2023-05-23T08:02:24;22.00;;;19.60;;
35578;SDS011;21687;48.900;9.188;2023-05-23T08:04:51;22.33;;;18.97;;
35578;SDS011;21687;48.900;9.188;2023-05-23T08:07:17;21.80;;;18.53;;
35578;SDS011;21687;48.900;9.188;2023-05-23T08:09:44;23.07;;;19.23;;
35578;SDS011;21687;48.900;9.188;2023-05-23T08:12:10;24.10;;;19.20;;
35578;SDS011;21687;48.900;9.188;2023-05-23T08:14:36;24.03;;;19.80;;
35578;SDS011;21687;48.900;9.188;2023-05-23T08:17:02;22.13;;;18.27;;
35578;SDS011;21687;48.900;9.188;2023-05-23T08:19:29;20.20;;;18.03;;
35578;SDS011;21687;48.900;9.188;2023-05-23T08:21:55;20.50;;;17.73;;
35578;SDS011;21687;48.900;9.188;2023-05-23T08:24:21;22.73;;;18.60;;
35578;SDS011;21687;48.900;9.188;2023-05-23T08:26:48;20.67;;;17.63;;
35578;SDS011;21687;48.900;9.188;2023-05-23T08:29:14;22.13;;;18.23;;
35578;SDS011;21687;48.900;9.188;2023-05-23T08:31:41;20.73;;;17.37;;
35578;SDS011;21687;48.900;9.188;2023-05-23T08:34:07;21.00;;;18.27;;
35578;SDS011;21687;48.900;9.188;2023-05-23T08:36:35;22.10;;;18.13;;
35578;SDS011;21687;48.900;9.188;2023-05-23T08:39:01;19.43;;;16.70;;
35578;SDS011;21687;48.900;9.188;2023-05-23T08:41:28;20.47;;;17.60;;
35578;SDS011;21687;48.900;9.188;2023-05-23T08:43:58;21.80;;;17.00;;
35578;SDS011;21687;48.900;9.188;2023-05-23T08:46:24;17.17;;;15.27;;
35578;SDS011;21687;48.900;9.188;2023-05-23T08:48:53;18.63;;;16.07;;
35578;SDS011;21687;48.900;9.188;2023-05-23T08:51:22;19.63;;;15.57;;
35578;SDS011;21687;48.900;9.188;2023-05-23T08:53:51;21.47;;;16.03;;
35578;SDS011;21687;48.900;9.188;2023-05-23T08:56:20;16.67;;;14.90;;
35578;SDS011;21687;48.900;9.188;2023-05-23T08:58:48;17.33;;;15.40;;
35578;SDS011;21687;48.900;9.188;2023-05-23T09:01:17;17.10;;;15.07;;
35578;SDS011;21687;48.900;9.188;2023-05-23T09:03:44;16.47;;;14.77;;
35578;SDS011;21687;48.900;9.188;2023-05-23T09:06:12;18.90;;;14.87;;
35578;SDS011;21687;48.900;9.188;2023-05-23T09:08:38;21.27;;;15.90;;
35578;SDS011;21687;48.900;9.188;2023-05-23T09:11:05;16.67;;;14.60;;
35578;SDS011;21687;48.900;9.188;2023-05-23T09:13:33;16.50;;;14.33;;
35578;SDS011;21687;48.900;9.188;2023-05-23T09:16:06;17.83;;;15.77;;
35578;SDS011;21687;48.900;9.188;2023-05-23T09:18:41;16.07;;;14.37;;
35578;SDS011;21687;48.900;9.188;2023-05-23T09:21:09;17.83;;;14.77;;
35578;SDS011;21687;48.900;9.188;2023-05-23T09:23:37;17.57;;;13.97;;
35578;SDS011;21687;48.900;9.188;2023-05-23T09:26:10;17.07;;;13.63;;
35578;SDS011;21687;48.900;9.188;2023-05-23T09:28:37;17.13;;;13.90;;
35578;SDS011;21687;48.900;9.188;2023-05-23T09:31:06;16.30;;;14.20;;
35578;SDS011;21687;48.900;9.188;2023-05-23T09:33:41;16.80;;;14.03;;
35578;SDS011;21687;48.900;9.188;2023-05-23T09:36:11;17.80;;;14.07;;
35578;SDS011;21687;48.900;9.188;2023-05-23T09:38:38;15.87;;;13.60;;
35578;SDS011;21687;48.900;9.188;2023-05-23T09:41:05;14.77;;;12.50;;
35578;SDS011;21687;48.900;9.188;2023-05-23T09:43:32;14.53;;;12.87;;
35578;SDS011;21687;48.900;9.188;2023-05-23T09:46:11;13.33;;;11.93;;
35578;SDS011;21687;48.900;9.188;2023-05-23T09:48:37;14.87;;;12.87;;
35578;SDS011;21687;48.900;9.188;2023-05-23T09:51:04;13.17;;;11.77;;
35578;SDS011;21687;48.900;9.188;2023-05-23T09:53:31;15.20;;;12.87;;
35578;SDS011;21687;48.900;9.188;2023-05-23T09:55:57;13.40;;;12.00;;
35578;SDS011;21687;48.900;9.188;2023-05-23T09:58:26;13.53;;;12.13;;
35578;SDS011;21687;48.900;9.188;2023-05-23T10:00:54;12.87;;;11.53;;
35578;SDS011;21687;48.900;9.188;2023-05-23T10:06:07;12.67;;;10.20;;
35578;SDS011;21687;48.900;9.188;2023-05-23T10:08:45;14.17;;;10.67;;
35578;SDS011;21687;48.900;9.188;2023-05-23T10:13:58;11.50;;;10.27;;
35578;SDS011;21687;48.900;9.188;2023-05-23T10:16:46;11.57;;;10.10;;
35578;SDS011;21687;48.900;9.188;2023-05-23T10:22:05;11.30;;;10.17;;
35578;SDS011;21687;48.900;9.188;2023-05-23T10:24:34;10.23;;;9.23;;
35578;SDS011;21687;48.900;9.188;2023-05-23T10:27:01;11.17;;;10.07;;
35578;SDS011;21687;48.900;9.188;2023-05-23T10:29:28;10.93;;;9.57;;
35578;SDS011;21687;48.900;9.188;2023-05-23T10:31:55;11.77;;;10.10;;
35578;SDS011;21687;48.900;9.188;2023-05-23T10:34:31;10.30;;;9.20;;
35578;SDS011;21687;48.900;9.188;2023-05-23T10:42:48;9.93;;;8.70;;
35578;SDS011;21687;48.900;9.188;2023-05-23T10:45:52;10.83;;;8.47;;
35578;SDS011;21687;48.900;9.188;2023-05-23T10:48:30;9.43;;;8.30;;
35578;SDS011;21687;48.900;9.188;2023-05-23T10:51:06;8.67;;;7.60;;
35578;SDS011;21687;48.900;9.188;2023-05-23T10:53:37;8.57;;;7.77;;
35578;SDS011;21687;48.900;9.188;2023-05-23T10:56:05;8.53;;;7.60;;
35578;SDS011;21687;48.900;9.188;2023-05-23T10:58:36;8.87;;;7.97;;
35578;SDS011;21687;48.900;9.188;2023-05-23T11:01:07;8.63;;;7.73;;
35578;SDS011;21687;48.900;9.188;2023-05-23T11:09:08;8.53;;;7.63;;
35578;SDS011;21687;48.900;9.188;2023-05-23T11:16:56;8.57;;;7.50;;
35578;SDS011;21687;48.900;9.188;2023-05-23T11:19:24;8.10;;;7.30;;
35578;SDS011;21687;48.900;9.188;2023-05-23T11:22:01;7.67;;;6.87;;
35578;SDS011;21687;48.900;9.188;2023-05-23T11:27:15;8.70;;;7.80;;
35578;SDS011;21687;48.900;9.188;2023-05-23T11:29:45;8.23;;;7.43;;
35578;SDS011;21687;48.900;9.188;2023-05-23T11:32:22;9.33;;;8.43;;
35578;SDS011;21687;48.900;9.188;2023-05-23T11:34:49;9.50;;;8.57;;
35578;SDS011;21687;48.900;9.188;2023-05-23T11:37:15;8.90;;;8.00;;
35578;SDS011;21687;48.900;9.188;2023-05-23T11:39:42;9.40;;;7.60;;
35578;SDS011;21687;48.900;9.188;2023-05-23T11:42:08;8.40;;;7.57;;
35578;SDS011;21687;48.900;9.188;2023-05-23T11:44:34;8.67;;;7.83;;
35578;SDS011;21687;48.900;9.188;2023-05-23T11:47:01;9.80;;;7.90;;
35578;SDS011;21687;48.900;9.188;2023-05-23T11:49:29;10.13;;;8.67;;
35578;SDS011;21687;48.900;9.188;2023-05-23T11:51:57;9.73;;;7.60;;
35578;SDS011;21687;48.900;9.188;2023-05-23T11:54:24;9.10;;;7.67;;
35578;SDS011;21687;48.900;9.188;2023-05-23T11:56:51;8.70;;;7.83;;
35578;SDS011;21687;48.900;9.188;2023-05-23T11:59:19;8.93;;;7.90;;
35578;SDS011;21687;48.900;9.188;2023-05-23T12:01:46;8.23;;;7.40;;
35578;SDS011;21687;48.900;9.188;2023-05-23T12:04:13;9.77;;;8.13;;
35578;SDS011;21687;48.900;9.188;2023-05-23T12:06:39;8.13;;;7.33;;
35578;SDS011;21687;48.900;9.188;2023-05-23T12:09:06;7.53;;;6.83;;
35578;SDS011;21687;48.900;9.188;2023-05-23T12:11:35;7.10;;;6.40;;
35578;SDS011;21687;48.900;9.188;2023-05-23T12:14:03;7.07;;;6.40;;
35578;SDS011;21687;48.900;9.188;2023-05-23T12:16:31;8.70;;;5.90;;
35578;SDS011;21687;48.900;9.188;2023-05-23T12:18:58;6.87;;;6.27;;
35578;SDS011;21687;48.900;9.188;2023-05-23T12:21:25;6.77;;;6.17;;
35578;SDS011;21687;48.900;9.188;2023-05-23T12:24:11;6.90;;;6.17;;
35578;SDS011;21687;48.900;9.188;2023-05-23T12:26:48;6.40;;;5.90;;
35578;SDS011;21687;48.900;9.188;2023-05-23T12:29:20;6.33;;;5.73;;
35578;SDS011;21687;48.900;9.188;2023-05-23T12:31:52;7.47;;;6.17;;
35578;SDS011;21687;48.900;9.188;2023-05-23T12:34:18;7.37;;;6.67;;
35578;SDS011;21687;48.900;9.188;2023-05-23T12:36:45;6.60;;;6.00;;
35578;SDS011;21687;48.900;9.188;2023-05-23T12:39:13;6.60;;;5.90;;
35578;SDS011;21687;48.900;9.188;2023-05-23T12:41:40;7.23;;;5.97;;
35578;SDS011;21687;48.900;9.188;2023-05-23T12:44:08;6.50;;;5.80;;
35578;SDS011;21687;48.900;9.188;2023-05-23T12:46:34;6.50;;;5.83;;
35578;SDS011;21687;48.900;9.188;2023-05-23T12:49:01;7.00;;;6.30;;
35578;SDS011;21687;48.900;9.188;2023-05-23T12:51:27;5.63;;;5.13;;
35578;SDS011;21687;48.900;9.188;2023-05-23T12:53:54;6.67;;;5.93;;
35578;SDS011;21687;48.900;9.188;2023-05-23T12:56:22;6.00;;;5.50;;
35578;SDS011;21687;48.900;9.188;2023-05-23T12:58:48;5.93;;;5.30;;
35578;SDS011;21687;48.900;9.188;2023-05-23T13:01:15;6.40;;;4.77;;
35578;SDS011;21687;48.900;9.188;2023-05-23T13:03:41;5.00;;;4.50;;
35578;SDS011;21687;48.900;9.188;2023-05-23T13:06:07;5.37;;;4.97;;
35578;SDS011;21687;48.900;9.188;2023-05-23T13:08:34;5.80;;;5.20;;
35578;SDS011;21687;48.900;9.188;2023-05-23T13:11:00;5.23;;;4.33;;
35578;SDS011;21687;48.900;9.188;2023-05-23T13:13:26;5.57;;;4.70;;
35578;SDS011;21687;48.900;9.188;2023-05-23T13:15:54;5.33;;;4.50;;
35578;SDS011;21687;48.900;9.188;2023-05-23T13:18:20;5.87;;;5.00;;
35578;SDS011;21687;48.900;9.188;2023-05-23T13:20:46;5.07;;;4.57;;
35578;SDS011;21687;48.900;9.188;2023-05-23T13:23:13;5.07;;;4.57;;
35578;SDS011;21687;48.900;9.188;2023-05-23T13:25:39;6.90;;;5.30;;
35578;SDS011;21687;48.900;9.188;2023-05-23T13:28:06;5.13;;;4.63;;
35578;SDS011;21687;48.900;9.188;2023-05-23T13:30:32;4.77;;;4.37;;
35578;SDS011;21687;48.900;9.188;2023-05-23T13:32:59;6.87;;;4.40;;
35578;SDS011;21687;48.900;9.188;2023-05-23T13:35:25;6.50;;;4.67;;
35578;SDS011;21687;48.900;9.188;2023-05-23T13:37:51;4.63;;;4.20;;
35578;SDS011;21687;48.900;9.188;2023-05-23T13:40:18;4.90;;;4.37;;
35578;SDS011;21687;48.900;9.188;2023-05-23T13:42:49;6.03;;;4.00;;
35578;SDS011;21687;48.900;9.188;2023-05-23T13:45:15;5.03;;;3.77;;
35578;SDS011;21687;48.900;9.188;2023-05-23T13:47:42;9.43;;;3.90;;
35578;SDS011;21687;48.900;9.188;2023-05-23T13:50:09;4.73;;;4.20;;
35578;SDS011;21687;48.900;9.188;2023-05-23T13:52:35;4.47;;;4.07;;
35578;SDS011;21687;48.900;9.188;2023-05-23T13:55:03;5.03;;;4.10;;
35578;SDS011;21687;48.900;9.188;2023-05-23T13:57:30;4.60;;;4.20;;
35578;SDS011;21687;48.900;9.188;2023-05-23T13:59:57;5.17;;;4.20;;
35578;SDS011;21687;48.900;9.188;2023-05-23T14:02:23;4.37;;;3.97;;
35578;SDS011;21687;48.900;9.188;2023-05-23T14:04:50;4.23;;;3.93;;
35578;SDS011;21687;48.900;9.188;2023-05-23T14:07:17;4.80;;;4.40;;
35578;SDS011;21687;48.900;9.188;2023-05-23T14:09:43;4.40;;;4.00;;
35578;SDS011;21687;48.900;9.188;2023-05-23T14:12:10;3.53;;;3.10;;
35578;SDS011;21687;48.900;9.188;2023-05-23T14:14:36;5.73;;;3.53;;
35578;SDS011;21687;48.900;9.188;2023-05-23T14:17:02;3.57;;;3.27;;
35578;SDS011;21687;48.900;9.188;2023-05-23T14:19:28;4.73;;;3.40;;
35578;SDS011;21687;48.900;9.188;2023-05-23T14:21:54;3.80;;;3.50;;
35578;SDS011;21687;48.900;9.188;2023-05-23T14:24:21;3.87;;;3.50;;
35578;SDS011;21687;48.900;9.188;2023-05-23T14:26:47;3.60;;;3.30;;
35578;SDS011;21687;48.900;9.188;2023-05-23T14:29:14;6.47;;;3.30;;
35578;SDS011;21687;48.900;9.188;2023-05-23T14:31:40;3.73;;;3.37;;
35578;SDS011;21687;48.900;9.188;2023-05-23T14:34:06;45.33;;;8.67;;
35578;SDS011;21687;48.900;9.188;2023-05-23T14:36:33;3.03;;;2.80;;
35578;SDS011;21687;48.900;9.188;2023-05-23T14:39:00;4.47;;;3.50;;
35578;SDS011;21687;48.900;9.188;2023-05-23T14:41:29;3.57;;;3.27;;
35578;SDS011;21687;48.900;9.188;2023-05-23T14:43:55;4.37;;;3.43;;
35578;SDS011;21687;48.900;9.188;2023-05-23T14:46:22;4.07;;;3.67;;
35578;SDS011;21687;48.900;9.188;2023-05-23T14:48:48;5.07;;;3.60;;
35578;SDS011;21687;48.900;9.188;2023-05-23T14:51:14;3.73;;;3.43;;
35578;SDS011;21687;48.900;9.188;2023-05-23T14:53:41;5.90;;;3.37;;
35578;SDS011;21687;48.900;9.188;2023-05-23T14:56:07;3.80;;;3.40;;
35578;SDS011;21687;48.900;9.188;2023-05-23T14:58:33;4.70;;;3.13;;
35578;SDS011;21687;48.900;9.188;2023-05-23T15:00:59;4.77;;;3.03;;
35578;SDS011;21687;48.900;9.188;2023-05-23T15:03:26;3.47;;;3.10;;
35578;SDS011;21687;48.900;9.188;2023-05-23T15:05:52;3.30;;;3.00;;
35578;SDS011;21687;48.900;9.188;2023-05-23T15:08:18;3.17;;;2.87;;